Time;durP1;ratioP1;P1;durP2;ratioP2;P2;SDS_P1;SDS_P2;PMS_P1;PMS_P2;Temp;Humidity;BMP_temperature;BMP_pressure;BME280_temperature;BME280_humidity;BME280_pressure;Samples;Min_cycle;Max_cycle;Signal;HPM_P1;HPM_P2
2022/05/19 00:01:47;;;;;;;0.50;0.40;;;21.40;50.70;;;;;;6219116;28;20037;-67
2022/05/19 00:04:48;;;;;;;0.60;0.60;;;21.40;50.60;;;;;;6219280;28;20060;-67
2022/05/19 00:07:48;;;;;;;0.40;0.40;;;21.40;50.60;;;;;;6236755;28;20034;-67
2022/05/19 00:10:49;;;;;;;0.75;0.70;;;21.40;50.60;;;;;;6267871;28;20045;-66
2022/05/19 00:13:50;;;;;;;1.05;0.60;;;21.40;50.70;;;;;;6268040;28;20041;-67
2022/05/19 00:16:52;;;;;;;0.35;0.35;;;21.40;50.70;;;;;;6268321;28;20361;-66
2022/05/19 00:19:53;;;;;;;0.63;0.50;;;21.40;50.70;;;;;;6267966;28;20020;-66
2022/05/19 00:22:56;;;;;;;0.82;0.60;;;21.40;50.70;;;;;;6268123;28;20391;-66
2022/05/19 00:25:57;;;;;;;0.60;0.60;;;21.40;50.70;;;;;;6268181;28;20716;-66
2022/05/19 00:28:57;;;;;;;1.38;0.60;;;21.40;50.60;;;;;;6268209;28;20029;-66
2022/05/19 00:31:58;;;;;;;0.60;0.60;;;21.40;50.70;;;;;;6243882;28;20041;-66
2022/05/19 00:34:59;;;;;;;0.60;0.60;;;21.40;50.70;;;;;;6243399;28;20032;-67
2022/05/19 00:37:59;;;;;;;0.65;0.55;;;21.40;50.70;;;;;;6243312;28;20036;-67
2022/05/19 00:41:00;;;;;;;0.60;0.60;;;21.40;50.70;;;;;;6243006;28;20041;-66
2022/05/19 00:44:05;;;;;;;0.50;0.50;;;21.40;50.70;;;;;;6225533;28;20063;-66
2022/05/19 00:47:11;;;;;;;0.65;0.50;;;21.40;50.70;;;;;;6225230;28;20053;-66
2022/05/19 00:50:22;;;;;;;0.70;0.60;;;21.40;50.70;;;;;;6242997;28;20030;-66
2022/05/19 00:53:35;;;;;;;0.80;0.68;;;21.40;50.70;;;;;;6224842;28;20051;-66
2022/05/19 00:56:44;;;;;;;0.50;0.50;;;21.40;50.70;;;;;;6243659;28;20021;-66
2022/05/19 00:59:54;;;;;;;0.55;0.55;;;21.40;50.70;;;;;;6242895;28;20415;-66
2022/05/19 01:02:58;;;;;;;0.77;0.40;;;21.40;50.70;;;;;;6242395;28;20057;-67
2022/05/19 01:06:06;;;;;;;0.70;0.55;;;21.40;50.80;;;;;;6242952;28;20033;-67
2022/05/19 01:09:11;;;;;;;0.60;0.60;;;21.40;50.70;;;;;;6260601;28;20433;-66
2022/05/19 01:12:12;;;;;;;0.50;0.50;;;21.40;50.70;;;;;;6267145;28;20029;-66
2022/05/19 01:15:14;;;;;;;0.77;0.68;;;21.40;50.70;;;;;;6267531;28;20025;-68
2022/05/19 01:18:15;;;;;;;0.77;0.70;;;21.40;50.70;;;;;;6267329;28;20030;-66
2022/05/19 01:21:20;;;;;;;0.63;0.60;;;21.40;50.70;;;;;;6267599;28;20052;-66
2022/05/19 01:24:29;;;;;;;0.55;0.50;;;21.40;50.70;;;;;;6267239;28;20033;-66
2022/05/19 01:27:30;;;;;;;1.08;0.57;;;21.40;50.70;;;;;;6267502;28;20025;-66
2022/05/19 01:30:31;;;;;;;0.40;0.40;;;21.40;50.70;;;;;;6264315;28;20124;-66
2022/05/19 01:33:33;;;;;;;0.35;0.35;;;21.40;50.80;;;;;;6267157;28;20048;-66
2022/05/19 01:36:34;;;;;;;0.80;0.70;;;21.40;50.70;;;;;;6266896;28;20176;-67
2022/05/19 01:39:35;;;;;;;0.60;0.60;;;21.40;50.70;;;;;;6267475;28;20036;-66
2022/05/19 01:42:46;;;;;;;0.40;0.40;;;21.40;50.70;;;;;;6268691;28;20032;-66
2022/05/19 01:46:05;;;;;;;0.60;0.55;;;21.40;50.80;;;;;;6271392;28;20029;-67
2022/05/19 01:49:21;;;;;;;0.55;0.50;;;21.40;50.70;;;;;;6271454;28;20029;-66
2022/05/19 01:52:32;;;;;;;0.77;0.55;;;21.40;50.70;;;;;;6263557;28;20125;-66
2022/05/19 01:55:57;;;;;;;0.80;0.60;;;21.40;50.70;;;;;;6246342;28;20029;-66
2022/05/19 01:59:33;;;;;;;0.68;0.60;;;21.40;50.70;;;;;;6246459;28;20030;-66
2022/05/19 02:02:40;;;;;;;0.60;0.60;;;21.40;50.70;;;;;;6246170;28;20616;-66
2022/05/19 02:05:51;;;;;;;0.50;0.50;;;21.40;50.80;;;;;;6246449;28;20048;-67
2022/05/19 02:09:00;;;;;;;0.77;0.60;;;21.30;49.30;;;;;;6246003;28;20040;-67
2022/05/19 02:12:01;;;;;;;0.60;0.60;;;21.40;48.40;;;;;;6252780;28;20032;-66
2022/05/19 02:15:07;;;;;;;0.75;0.60;;;21.60;47.80;;;;;;6270930;28;20468;-67
2022/05/19 02:18:08;;;;;;;0.95;0.60;;;21.60;47.40;;;;;;6270813;28;20539;-66
2022/05/19 02:21:10;;;;;;;0.90;0.60;;;21.70;47.30;;;;;;6270567;28;20025;-66
2022/05/19 02:24:14;;;;;;;0.70;0.60;;;21.80;47.20;;;;;;6270585;28;20395;-67
2022/05/19 02:27:38;;;;;;;0.60;0.60;;;21.90;47.00;;;;;;6270833;28;20025;-66
2022/05/19 02:30:40;;;;;;;0.55;0.50;;;21.90;46.90;;;;;;6257801;28;20048;-67
2022/05/19 02:33:41;;;;;;;0.77;0.50;;;22.00;46.80;;;;;;6245372;28;20068;-66
2022/05/19 02:36:42;;;;;;;0.55;0.50;;;22.00;46.70;;;;;;6227790;28;20079;-66
2022/05/19 02:39:42;;;;;;;0.55;0.50;;;22.00;46.60;;;;;;6246002;28;20030;-67
2022/05/19 02:42:43;;;;;;;1.23;0.90;;;22.10;46.60;;;;;;6227764;28;20025;-66
2022/05/19 02:45:46;;;;;;;0.82;0.70;;;22.00;46.40;;;;;;6245468;28;20385;-66
2022/05/19 02:48:46;;;;;;;0.90;0.70;;;22.00;46.40;;;;;;6245618;28;20435;-66
2022/05/19 02:51:47;;;;;;;0.50;0.50;;;22.00;46.30;;;;;;6245075;28;20156;-66
2022/05/19 02:54:48;;;;;;;1.05;0.70;;;22.10;46.40;;;;;;6245223;28;20025;-66
2022/05/19 02:57:49;;;;;;;0.88;0.60;;;22.10;46.20;;;;;;6244983;28;20013;-67
2022/05/19 03:00:50;;;;;;;0.70;0.50;;;22.10;46.20;;;;;;6227385;28;20543;-66
2022/05/19 03:03:51;;;;;;;0.70;0.70;;;22.10;46.20;;;;;;6245025;28;20033;-67
2022/05/19 03:06:52;;;;;;;1.65;0.70;;;22.10;46.20;;;;;;6245884;28;20107;-66
2022/05/19 03:09:52;;;;;;;0.50;0.50;;;22.10;46.10;;;;;;6243260;28;20385;-66
2022/05/19 03:12:56;;;;;;;1.05;0.80;;;22.10;46.00;;;;;;6244663;28;20029;-66
2022/05/19 03:15:57;;;;;;;0.50;0.50;;;22.10;45.90;;;;;;6244368;28;20061;-67
2022/05/19 03:18:58;;;;;;;0.60;0.40;;;22.20;46.00;;;;;;6243426;28;20030;-66
2022/05/19 03:21:58;;;;;;;0.70;0.50;;;22.10;45.80;;;;;;6236044;28;20026;-67
2022/05/19 03:24:59;;;;;;;0.77;0.60;;;22.10;45.80;;;;;;6218737;28;20034;-67
2022/05/19 03:28:00;;;;;;;0.60;0.60;;;22.20;45.60;;;;;;6219815;28;20116;-67
2022/05/19 03:31:00;;;;;;;3.55;0.60;;;22.20;45.70;;;;;;6218237;28;20064;-66
2022/05/19 03:34:02;;;;;;;1.33;0.60;;;22.10;45.60;;;;;;6218303;28;20029;-67
2022/05/19 03:37:05;;;;;;;0.82;0.60;;;22.20;45.60;;;;;;6220106;28;20060;-66
2022/05/19 03:40:07;;;;;;;1.10;0.70;;;22.20;45.60;;;;;;6218229;28;20552;-66
2022/05/19 03:43:08;;;;;;;0.65;0.60;;;22.10;46.00;;;;;;6218260;28;20136;-66
2022/05/19 03:46:09;;;;;;;0.60;0.60;;;22.00;47.50;;;;;;6219159;28;20067;-67
2022/05/19 03:49:11;;;;;;;0.70;0.70;;;21.80;48.10;;;;;;6219431;28;20038;-66
2022/05/19 03:52:12;;;;;;;0.70;0.70;;;21.80;48.60;;;;;;6212916;28;20022;-67
2022/05/19 03:55:14;;;;;;;0.65;0.60;;;21.70;48.70;;;;;;6193904;28;20033;-66
2022/05/19 03:58:14;;;;;;;0.50;0.50;;;21.60;48.80;;;;;;6210371;28;20083;-66
2022/05/19 04:01:17;;;;;;;0.70;0.68;;;21.60;49.00;;;;;;6219579;28;20022;-66
2022/05/19 04:04:17;;;;;;;0.40;0.40;;;21.60;49.10;;;;;;6218971;28;20058;-67
2022/05/19 04:07:18;;;;;;;0.50;0.50;;;21.60;49.20;;;;;;6251668;28;20036;-66
2022/05/19 04:10:19;;;;;;;0.77;0.70;;;21.50;49.20;;;;;;6230818;28;20188;-66
2022/05/19 04:13:20;;;;;;;1.98;0.90;;;21.60;49.40;;;;;;6243388;28;20029;-67
2022/05/19 04:16:21;;;;;;;0.70;0.60;;;21.60;49.50;;;;;;6243485;28;20025;-66
2022/05/19 04:19:21;;;;;;;0.50;0.50;;;21.60;49.50;;;;;;6243545;28;20025;-66
2022/05/19 04:22:22;;;;;;;0.88;0.70;;;21.60;49.60;;;;;;6243489;28;20083;-66
2022/05/19 04:25:23;;;;;;;0.60;0.52;;;21.60;49.70;;;;;;6243187;28;20065;-66
2022/05/19 04:28:23;;;;;;;0.70;0.70;;;21.50;49.60;;;;;;6243253;28;20013;-66
2022/05/19 04:31:24;;;;;;;0.63;0.60;;;21.50;49.70;;;;;;6243074;28;20038;-67
2022/05/19 04:34:24;;;;;;;0.73;0.70;;;21.50;49.70;;;;;;6243152;28;20563;-66
2022/05/19 04:37:25;;;;;;;1.13;0.80;;;21.50;49.70;;;;;;6243174;28;20072;-67
2022/05/19 04:40:26;;;;;;;0.90;0.80;;;21.50;49.80;;;;;;6243014;28;20030;-67
2022/05/19 04:43:27;;;;;;;0.95;0.80;;;21.50;49.80;;;;;;6243114;28;20033;-67
2022/05/19 04:46:27;;;;;;;0.70;0.70;;;21.50;49.80;;;;;;6242884;28;20033;-66
2022/05/19 04:49:28;;;;;;;0.60;0.60;;;21.50;49.70;;;;;;6225153;28;20029;-67
2022/05/19 04:52:29;;;;;;;1.38;0.70;;;21.50;49.70;;;;;;6242978;28;20071;-66
2022/05/19 04:55:30;;;;;;;0.50;0.50;;;21.50;49.80;;;;;;6225294;28;20030;-67
2022/05/19 04:58:30;;;;;;;1.33;0.60;;;21.50;49.70;;;;;;6242971;28;20061;-66
2022/05/19 05:01:31;;;;;;;0.70;0.60;;;21.50;49.80;;;;;;6241777;28;20041;-67
2022/05/19 05:04:31;;;;;;;0.70;0.60;;;21.50;49.80;;;;;;6225086;28;20040;-66
2022/05/19 05:07:32;;;;;;;0.75;0.52;;;21.50;49.80;;;;;;6242501;28;20109;-66
2022/05/19 05:10:33;;;;;;;0.85;0.65;;;21.50;49.80;;;;;;6242340;28;20132;-66
2022/05/19 05:13:33;;;;;;;0.90;0.57;;;21.50;49.90;;;;;;6256131;28;20031;-66
2022/05/19 05:16:34;;;;;;;0.52;0.52;;;21.50;49.80;;;;;;6249672;28;20036;-66
2022/05/19 05:19:35;;;;;;;0.60;0.60;;;21.50;49.80;;;;;;6272159;28;20025;-68
2022/05/19 05:22:36;;;;;;;0.52;0.52;;;21.50;49.80;;;;;;6254546;28;20119;-68
2022/05/19 05:25:37;;;;;;;0.93;0.73;;;21.50;49.90;;;;;;6241670;28;20599;-69
2022/05/19 05:28:38;;;;;;;0.98;0.70;;;21.50;49.90;;;;;;6244588;28;20025;-68
2022/05/19 05:31:39;;;;;;;0.60;0.50;;;21.50;49.90;;;;;;6259767;28;20083;-70
2022/05/19 05:34:39;;;;;;;0.50;0.50;;;21.50;49.90;;;;;;6250312;28;20037;-70
2022/05/19 05:37:40;;;;;;;0.70;0.70;;;21.50;49.90;;;;;;6247010;28;20101;-70
2022/05/19 05:40:41;;;;;;;0.77;0.60;;;21.50;49.90;;;;;;6253966;28;20048;-69
2022/05/19 05:43:41;;;;;;;0.88;0.75;;;21.50;49.90;;;;;;6253918;28;20028;-69
2022/05/19 05:46:42;;;;;;;0.68;0.63;;;21.50;49.90;;;;;;6253483;28;20391;-69
2022/05/19 05:49:42;;;;;;;0.98;0.88;;;21.50;49.90;;;;;;6253119;28;20122;-69
2022/05/19 05:52:43;;;;;;;0.85;0.65;;;21.50;50.10;;;;;;6229193;28;20025;-70
2022/05/19 05:55:43;;;;;;;1.00;0.55;;;21.50;49.90;;;;;;6238858;28;20040;-69
2022/05/19 05:58:44;;;;;;;1.40;0.60;;;21.50;49.90;;;;;;6249958;28;20053;-69
2022/05/19 06:01:45;;;;;;;4.20;0.88;;;21.50;50.10;;;;;;6259166;28;20029;-68
2022/05/19 06:04:46;;;;;;;3.45;0.60;;;21.60;50.60;;;;;;6247975;28;20037;-70
2022/05/19 06:07:46;;;;;;;6.43;0.90;;;21.70;50.50;;;;;;6230661;28;20022;-70
2022/05/19 06:10:47;;;;;;;13.93;1.08;;;21.70;50.60;;;;;;6248552;28;20073;-67
2022/05/19 06:13:50;;;;;;;4.50;1.17;;;21.80;51.50;;;;;;6247993;28;20526;-68
2022/05/19 06:16:50;;;;;;;8.43;1.02;;;21.80;51.70;;;;;;6246814;28;20032;-68
2022/05/19 06:19:51;;;;;;;5.43;1.05;;;21.90;51.40;;;;;;6247910;28;20030;-68
2022/05/19 06:22:52;;;;;;;9.05;0.98;;;21.90;50.90;;;;;;6230047;28;20099;-68
2022/05/19 06:25:53;;;;;;;5.32;1.02;;;21.90;50.80;;;;;;6247464;28;20534;-68
2022/05/19 06:28:53;;;;;;;6.70;1.08;;;21.90;50.50;;;;;;6247422;28;20243;-68
2022/05/19 06:31:54;;;;;;;1.85;1.00;;;21.90;50.50;;;;;;6247407;28;20068;-68
2022/05/19 06:34:55;;;;;;;2.13;0.80;;;22.00;50.50;;;;;;6246329;28;20120;-68
2022/05/19 06:37:57;;;;;;;1.38;1.00;;;21.90;50.30;;;;;;6248482;28;20096;-68
2022/05/19 06:42:00;;;;;;;5.55;0.90;;;21.90;50.30;;;;;;6247761;28;20472;-68
2022/05/19 06:44:19;;;;;;;3.22;0.90;;;21.90;50.20;;;;;;6247281;28;20111;-69
2022/05/19 06:47:20;;;;;;;3.90;0.95;;;21.90;50.20;;;;;;6247305;28;20416;-68
2022/05/19 06:50:22;;;;;;;3.00;1.05;;;21.90;50.20;;;;;;6241929;28;20407;-68
2022/05/19 06:53:22;;;;;;;0.80;0.70;;;21.90;50.20;;;;;;6229638;28;20025;-68
2022/05/19 06:56:23;;;;;;;2.58;1.05;;;21.90;50.20;;;;;;6245779;28;20036;-68
2022/05/19 06:59:23;;;;;;;1.55;0.95;;;21.90;50.30;;;;;;6247215;28;20033;-68
2022/05/19 07:02:25;;;;;;;1.17;0.70;;;21.90;50.20;;;;;;6247285;28;20112;-68
2022/05/19 07:05:32;;;;;;;1.13;0.70;;;21.90;50.20;;;;;;6246739;28;20022;-69
2022/05/19 07:08:32;;;;;;;2.03;0.90;;;21.90;50.20;;;;;;6247166;28;20040;-68
2022/05/19 07:11:33;;;;;;;1.90;0.77;;;21.80;50.20;;;;;;6259095;28;20496;-68
2022/05/19 07:14:34;;;;;;;1.48;0.75;;;21.90;50.30;;;;;;6271038;28;20032;-68
2022/05/19 07:17:34;;;;;;;1.73;1.02;;;21.80;50.20;;;;;;6246366;28;20100;-68
2022/05/19 07:20:44;;;;;;;3.45;0.80;;;21.80;50.30;;;;;;6246374;28;20036;-68
2022/05/19 07:23:46;;;;;;;0.80;0.68;;;21.80;50.30;;;;;;6246202;28;20512;-68
2022/05/19 07:26:50;;;;;;;0.93;0.82;;;21.80;50.30;;;;;;6245414;28;20041;-68
2022/05/19 07:29:50;;;;;;;1.00;0.60;;;21.80;50.30;;;;;;6246321;28;20052;-69
2022/05/19 07:32:54;;;;;;;1.73;0.65;;;21.80;50.40;;;;;;6245678;28;20018;-68
2022/05/19 07:35:55;;;;;;;1.77;0.75;;;21.80;50.40;;;;;;6245935;28;20021;-69
2022/05/19 07:38:56;;;;;;;1.05;0.70;;;21.80;50.40;;;;;;6259203;28;20515;-69
2022/05/19 07:41:57;;;;;;;1.88;0.82;;;21.80;50.40;;;;;;6245807;28;20021;-68
2022/05/19 07:44:58;;;;;;;0.73;0.65;;;21.80;50.50;;;;;;6228224;28;20079;-68
2022/05/19 07:47:58;;;;;;;0.65;0.65;;;21.80;50.50;;;;;;6246172;28;20026;-68
2022/05/19 07:50:59;;;;;;;1.48;0.93;;;21.80;50.60;;;;;;6245921;28;20026;-69
2022/05/19 07:54:00;;;;;;;1.63;0.63;;;21.80;50.50;;;;;;6245893;28;20017;-68
2022/05/19 07:57:01;;;;;;;1.67;0.80;;;21.80;50.60;;;;;;6245519;28;20365;-69
2022/05/19 08:00:03;;;;;;;1.73;0.70;;;21.70;50.50;;;;;;6245998;28;20064;-69
2022/05/19 08:03:03;;;;;;;1.17;0.70;;;21.70;51.20;;;;;;6228290;28;20124;-69
2022/05/19 08:06:07;;;;;;;0.70;0.60;;;21.80;50.60;;;;;;6226838;28;20514;-69
2022/05/19 08:15:48;;;;;;;3.20;0.60;;;21.70;50.70;;;;;;6245421;28;20501;-69
2022/05/19 08:18:49;;;;;;;1.42;0.50;;;21.70;50.70;;;;;;6245450;28;20047;-70
2022/05/19 08:21:50;;;;;;;1.13;0.77;;;21.70;50.70;;;;;;6228070;28;20017;-69
2022/05/19 08:24:51;;;;;;;1.17;0.60;;;21.70;50.70;;;;;;6269039;28;20017;-71
2022/05/19 08:27:52;;;;;;;1.48;0.70;;;21.70;50.70;;;;;;6270198;28;20494;-68
2022/05/19 08:30:53;;;;;;;1.58;0.90;;;21.70;50.80;;;;;;6270019;28;20025;-69
2022/05/19 08:33:54;;;;;;;0.50;0.50;;;21.70;50.80;;;;;;6259228;28;20566;-69
2022/05/19 08:36:55;;;;;;;1.35;0.70;;;21.70;50.80;;;;;;6244873;28;20132;-70
2022/05/19 08:39:55;;;;;;;0.98;0.70;;;21.70;50.80;;;;;;6243953;28;20041;-68
2022/05/19 08:42:59;;;;;;;0.50;0.50;;;21.70;50.80;;;;;;6243976;28;20084;-68
2022/05/19 08:46:02;;;;;;;0.50;0.50;;;21.70;50.80;;;;;;6244817;28;20033;-69
2022/05/19 08:49:33;;;;;;;1.88;0.98;;;21.70;50.80;;;;;;6241730;28;20141;-69
2022/05/19 08:52:39;;;;;;;1.27;0.75;;;21.70;50.80;;;;;;6233208;28;20109;-68
2022/05/19 08:55:45;;;;;;;0.73;0.70;;;21.70;50.80;;;;;;6249452;28;20071;-68
2022/05/19 08:58:52;;;;;;;0.98;0.80;;;21.70;50.80;;;;;;6252266;28;20077;-68
2022/05/19 09:02:04;;;;;;;1.10;0.77;;;21.60;50.80;;;;;;6256434;28;20025;-68
2022/05/19 09:05:30;;;;;;;0.63;0.60;;;21.70;50.90;;;;;;6230611;28;20033;-67
2022/05/19 09:09:00;;;;;;;1.90;0.70;;;21.70;50.90;;;;;;6239806;28;20040;-68
2022/05/19 09:12:09;;;;;;;0.75;0.68;;;21.60;50.80;;;;;;6235199;28;20038;-68
2022/05/19 09:15:10;;;;;;;0.77;0.60;;;21.70;50.90;;;;;;6249073;28;20128;-69
2022/05/19 09:18:14;;;;;;;0.60;0.57;;;21.70;50.90;;;;;;6252079;28;20036;-69
2022/05/19 09:21:15;;;;;;;0.85;0.60;;;21.60;50.80;;;;;;6244946;28;20029;-69
2022/05/19 09:24:15;;;;;;;0.68;0.60;;;21.70;50.90;;;;;;6249883;28;20101;-69
2022/05/19 09:27:19;;;;;;;0.93;0.60;;;21.70;50.90;;;;;;6263768;28;20529;-70
2022/05/19 09:30:38;;;;;;;0.98;0.60;;;21.70;50.90;;;;;;6256665;28;20116;-69
2022/05/19 09:33:47;;;;;;;1.08;0.60;;;21.70;50.90;;;;;;6256568;28;20025;-69
2022/05/19 09:37:07;;;;;;;0.70;0.70;;;21.60;50.80;;;;;;6273958;28;20021;-69
2022/05/19 09:40:11;;;;;;;0.95;0.80;;;21.60;50.80;;;;;;6256356;28;20021;-69
2022/05/19 09:43:25;;;;;;;1.38;0.60;;;21.60;50.80;;;;;;6274122;28;20480;-69
2022/05/19 09:46:41;;;;;;;0.85;0.63;;;21.70;50.90;;;;;;6259337;28;20026;-69
2022/05/19 09:49:51;;;;;;;1.17;0.85;;;21.70;50.90;;;;;;6249245;28;20466;-69
2022/05/19 09:53:00;;;;;;;2.55;0.90;;;21.60;50.90;;;;;;6210130;28;20030;-69
2022/05/19 09:56:04;;;;;;;0.65;0.55;;;21.70;50.90;;;;;;6206617;28;20018;-69
2022/05/19 09:59:13;;;;;;;1.02;0.75;;;21.60;50.90;;;;;;6218523;28;20871;-67
2022/05/19 10:02:21;;;;;;;0.90;0.75;;;21.60;50.90;;;;;;6245049;28;20029;-67
2022/05/19 10:05:37;;;;;;;0.57;0.52;;;21.70;51.00;;;;;;6247627;28;20033;-67
2022/05/19 10:08:41;;;;;;;1.45;1.02;;;21.70;50.90;;;;;;6262391;28;20032;-67
2022/05/19 10:11:54;;;;;;;0.80;0.73;;;21.70;51.00;;;;;;6265785;28;20041;-67
2022/05/19 10:15:04;;;;;;;1.38;0.88;;;21.60;51.00;;;;;;6271807;28;20029;-67
2022/05/19 10:18:25;;;;;;;0.80;0.63;;;21.60;51.70;;;;;;6241055;28;20083;-66
2022/05/19 10:21:34;;;;;;;0.80;0.60;;;21.60;51.00;;;;;;6229179;28;20036;-66
2022/05/19 10:24:41;;;;;;;2.35;0.82;;;21.60;51.00;;;;;;6223099;28;20119;-66
2022/05/19 10:32:15;;;;;;;1.38;0.73;;;21.60;51.00;;;;;;6247893;28;20485;-66
2022/05/19 10:35:38;;;;;;;1.08;0.88;;;21.60;51.00;;;;;;6247218;28;20037;-66
2022/05/19 10:39:13;;;;;;;0.63;0.60;;;21.60;51.00;;;;;;6229372;28;20156;-66
2022/05/19 10:42:34;;;;;;;0.85;0.75;;;21.60;51.00;;;;;;6247673;28;20018;-67
2022/05/19 10:45:40;;;;;;;0.98;0.80;;;21.60;51.10;;;;;;6222236;28;20038;-66
2022/05/19 10:48:55;;;;;;;0.93;0.73;;;21.60;51.00;;;;;;6222863;28;20030;-66
2022/05/19 10:52:08;;;;;;;2.35;0.90;;;21.60;51.00;;;;;;6226844;28;20508;-67
2022/05/19 10:55:19;;;;;;;1.25;0.70;;;21.60;51.30;;;;;;6246992;28;20115;-67
2022/05/19 10:58:34;;;;;;;0.77;0.60;;;21.60;51.00;;;;;;6247382;28;20480;-66
2022/05/19 11:01:53;;;;;;;1.20;0.90;;;21.60;51.00;;;;;;6246971;28;20037;-66
2022/05/19 11:05:51;;;;;;;0.70;0.70;;;21.60;51.00;;;;;;6246240;28;20025;-66
2022/05/19 11:09:05;;;;;;;1.85;0.75;;;21.60;51.10;;;;;;6146927;29;20070;-67
2022/05/19 11:12:21;;;;;;;1.10;0.70;;;21.60;51.00;;;;;;6140580;28;20070;-66
2022/05/19 11:15:50;;;;;;;0.95;0.60;;;21.60;51.00;;;;;;6222019;28;20021;-66
2022/05/19 11:18:54;;;;;;;1.55;0.88;;;21.60;51.10;;;;;;6222051;28;20021;-66
2022/05/19 11:22:00;;;;;;;0.68;0.60;;;21.60;51.10;;;;;;6233298;28;20056;-66
2022/05/19 11:28:38;;;;;;;0.80;0.60;;;21.60;51.00;;;;;;6246774;28;20022;-66
2022/05/19 11:31:59;;;;;;;;;;;21.60;51.10;;;;;;6204088;28;20057;-66
2022/05/19 11:35:22;;;;;;;0.85;0.57;;;21.60;51.10;;;;;;6196915;28;20368;-66
2022/05/19 11:38:37;;;;;;;0.70;0.70;;;21.60;51.20;;;;;;6198233;28;20019;-64
2022/05/19 11:41:39;;;;;;;1.25;0.85;;;21.70;51.30;;;;;;6213164;28;20113;-66
2022/05/19 11:44:39;;;;;;;4.55;0.80;;;21.70;51.30;;;;;;6198327;28;20030;-69
2022/05/19 11:55:14;;;;;;;0.82;0.75;;;21.70;51.60;;;;;;6205030;28;20026;-66
2022/05/19 11:58:27;;;;;;;0.93;0.73;;;21.60;51.50;;;;;;6220926;28;20176;-66
2022/05/19 12:01:37;;;;;;;1.25;0.77;;;21.60;51.40;;;;;;6209955;28;20067;-66
2022/05/19 12:04:38;;;;;;;0.70;0.60;;;21.60;51.40;;;;;;6220061;28;20122;-66
2022/05/19 12:07:53;;;;;;;0.80;0.80;;;21.60;51.60;;;;;;6227612;28;20079;-67
2022/05/19 12:11:11;;;;;;;0.75;0.70;;;21.60;51.30;;;;;;6260807;28;20388;-66
2022/05/19 12:14:18;;;;;;;1.13;0.80;;;21.60;51.50;;;;;;6269268;28;20028;-66
2022/05/19 12:17:28;;;;;;;0.73;0.68;;;21.60;52.00;;;;;;6268746;28;20104;-66
2022/05/19 12:20:53;;;;;;;1.20;0.80;;;21.60;51.30;;;;;;6250188;28;20108;-66
2022/05/19 12:23:56;;;;;;;0.85;0.63;;;21.60;52.60;;;;;;6268609;28;20036;-66
2022/05/19 12:27:01;;;;;;;1.98;0.85;;;21.70;52.20;;;;;;6250332;28;20029;-66
2022/05/19 12:34:00;;;;;;;0.98;0.88;;;21.90;51.50;;;;;;6207982;28;20037;-66
2022/05/19 12:37:13;;;;;;;4.38;1.50;;;21.90;51.30;;;;;;6219579;28;20488;-66
2022/05/19 12:40:28;;;;;;;11.50;2.95;;;22.00;51.20;;;;;;6219896;28;20471;-66
2022/05/19 12:43:45;;;;;;;10.88;2.15;;;22.10;51.10;;;;;;6219638;28;20485;-66
2022/05/19 12:46:45;;;;;;;66.55;10.70;;;22.20;51.10;;;;;;6219586;28;20113;-66
2022/05/19 12:50:06;;;;;;;34.13;6.82;;;22.10;51.20;;;;;;6224760;28;20086;-67
2022/05/19 12:53:28;;;;;;;34.33;6.80;;;22.00;51.30;;;;;;6244228;28;20018;-68
2022/05/19 12:56:41;;;;;;;27.85;6.18;;;22.00;51.40;;;;;;6243684;28;20018;-67
2022/05/19 13:00:01;;;;;;;26.75;5.00;;;21.90;51.40;;;;;;6216540;28;20067;-67
2022/05/19 13:03:09;;;;;;;23.73;4.97;;;21.90;51.40;;;;;;6244139;28;20027;-67
2022/05/19 13:06:12;;;;;;;21.95;5.50;;;21.80;51.40;;;;;;6243763;28;20032;-67
2022/05/19 13:09:19;;;;;;;16.30;4.82;;;21.80;51.40;;;;;;6226343;28;20053;-67
2022/05/19 13:12:24;;;;;;;18.60;4.65;;;21.80;51.50;;;;;;6224517;28;20552;-68
2022/05/19 13:15:30;;;;;;;17.48;4.40;;;21.80;51.50;;;;;;6219018;28;20037;-68
2022/05/19 13:18:34;;;;;;;16.52;4.72;;;21.80;51.50;;;;;;6219723;28;20030;-68
2022/05/19 13:22:02;;;;;;;16.48;4.43;;;21.80;51.50;;;;;;6229207;28;20037;-68
2022/05/19 13:25:05;;;;;;;17.55;4.38;;;21.80;51.60;;;;;;6243641;28;20017;-67
2022/05/19 13:31:32;;;;;;;16.50;4.43;;;21.80;51.60;;;;;;6224057;28;20034;-68
2022/05/19 13:34:44;;;;;;;14.60;3.97;;;21.80;51.60;;;;;;6219099;28;20072;-68
2022/05/19 13:37:46;;;;;;;14.90;4.25;;;21.70;51.50;;;;;;6233150;28;20029;-69
2022/05/19 13:40:48;;;;;;;16.00;4.53;;;21.70;51.50;;;;;;6230238;28;20492;-68
2022/05/19 13:43:50;;;;;;;11.10;3.85;;;21.70;51.50;;;;;;6248427;28;20553;-69
2022/05/19 13:46:51;;;;;;;18.05;4.47;;;21.70;51.50;;;;;;6230084;28;20017;-68
2022/05/19 13:49:56;;;;;;;12.05;4.20;;;21.70;51.50;;;;;;6247644;28;20033;-69
2022/05/19 13:53:06;;;;;;;14.57;4.15;;;21.70;51.40;;;;;;6247838;28;20018;-68
2022/05/19 13:56:07;;;;;;;12.98;3.60;;;21.70;51.50;;;;;;6247559;28;20494;-68
2022/05/19 13:59:11;;;;;;;7.75;3.20;;;21.70;51.50;;;;;;6248032;28;20060;-69
2022/05/19 14:02:22;;;;;;;9.80;3.47;;;21.70;51.40;;;;;;6247478;28;20452;-68
2022/05/19 14:05:28;;;;;;;8.75;3.72;;;21.70;51.50;;;;;;6246789;28;20100;-68
2022/05/19 14:08:29;;;;;;;15.45;4.47;;;21.70;51.40;;;;;;6241598;28;20516;-68
2022/05/19 14:11:30;;;;;;;9.25;2.88;;;21.70;51.50;;;;;;6253291;28;20049;-68
2022/05/19 14:14:31;;;;;;;12.45;3.65;;;21.60;51.40;;;;;;6271489;28;20036;-68
2022/05/19 14:17:47;;;;;;;13.38;3.95;;;21.70;51.50;;;;;;6271715;28;20380;-68
2022/05/19 14:20:52;;;;;;;6.28;3.00;;;21.70;51.40;;;;;;6250000;28;20040;-68
2022/05/19 14:23:58;;;;;;;11.52;3.63;;;21.70;51.40;;;;;;6247051;28;20021;-68
2022/05/19 14:26:59;;;;;;;9.48;2.80;;;21.60;51.40;;;;;;6228951;28;20220;-67
2022/05/19 14:30:13;;;;;;;10.70;3.33;;;21.60;51.40;;;;;;6229090;28;20369;-67
2022/05/19 14:33:21;;;;;;;10.48;3.13;;;21.60;51.40;;;;;;6228858;28;20053;-67
2022/05/19 14:36:25;;;;;;;10.45;2.90;;;21.60;51.40;;;;;;6228362;28;20032;-67
2022/05/19 14:39:26;;;;;;;7.75;2.95;;;21.60;51.40;;;;;;6246889;28;20442;-69
2022/05/19 14:45:58;;;;;;;8.15;2.67;;;21.60;51.30;;;;;;6246818;28;20695;-68
2022/05/19 14:49:02;;;;;;;6.40;2.58;;;21.60;51.40;;;;;;6246204;28;20033;-67
2022/05/19 14:52:04;;;;;;;6.65;2.47;;;21.60;51.40;;;;;;6241062;28;20073;-67
2022/05/19 14:55:15;;;;;;;5.10;2.53;;;21.60;51.40;;;;;;6230198;28;20291;-67
2022/05/19 14:58:20;;;;;;;8.55;3.35;;;21.60;51.40;;;;;;6241703;28;20033;-67
2022/05/19 15:01:21;;;;;;;4.70;2.10;;;21.60;51.40;;;;;;6245845;28;20388;-68
2022/05/19 15:04:22;;;;;;;9.98;2.70;;;21.60;51.40;;;;;;6246208;28;20033;-68
2022/05/19 15:07:43;;;;;;;7.43;2.67;;;21.60;51.40;;;;;;6251083;28;20021;-68
2022/05/19 15:10:44;;;;;;;4.90;2.28;;;21.60;51.30;;;;;;6251549;28;20037;-68
2022/05/19 15:13:45;;;;;;;4.05;2.05;;;21.60;51.50;;;;;;6239933;28;20034;-67
2022/05/19 15:16:46;;;;;;;9.20;2.67;;;21.60;51.40;;;;;;6245755;28;20064;-68
2022/05/19 15:19:48;;;;;;;6.78;2.67;;;21.60;51.40;;;;;;6228120;28;20029;-68
2022/05/19 15:22:50;;;;;;;6.25;2.25;;;21.60;51.40;;;;;;6227310;28;20022;-68
2022/05/19 15:25:50;;;;;;;5.03;2.33;;;21.60;51.40;;;;;;6244734;28;20030;-68
2022/05/19 15:28:53;;;;;;;5.07;2.25;;;21.60;51.40;;;;;;6227810;28;20052;-68
2022/05/19 15:31:54;;;;;;;6.18;2.70;;;21.60;51.40;;;;;;6204877;28;20034;-68
2022/05/19 15:34:55;;;;;;;6.32;2.83;;;21.60;51.70;;;;;;6203160;28;20435;-68
2022/05/19 15:37:56;;;;;;;6.93;2.85;;;21.60;51.30;;;;;;6220774;28;20034;-68
2022/05/19 15:40:57;;;;;;;5.15;2.13;;;21.60;51.30;;;;;;6220885;28;20729;-67
2022/05/19 15:43:58;;;;;;;7.22;2.45;;;21.60;51.30;;;;;;6240233;28;20041;-68
2022/05/19 15:47:00;;;;;;;6.93;2.95;;;21.60;51.60;;;;;;6244772;28;20391;-68
2022/05/19 15:50:01;;;;;;;3.60;2.00;;;21.60;51.70;;;;;;6227679;28;20025;-68
2022/05/19 15:53:03;;;;;;;4.72;2.08;;;21.60;51.60;;;;;;6231868;28;20537;-68
2022/05/19 15:56:05;;;;;;;4.45;2.00;;;21.60;51.50;;;;;;6219656;28;20022;-68
2022/05/19 15:59:06;;;;;;;4.07;2.03;;;21.60;51.40;;;;;;6235240;28;20493;-67
2022/05/19 16:02:30;;;;;;;4.13;2.33;;;21.60;51.50;;;;;;6239547;28;20075;-67
2022/05/19 16:05:30;;;;;;;3.92;2.33;;;21.60;51.50;;;;;;6269184;28;20075;-67
2022/05/19 16:08:33;;;;;;;5.15;2.05;;;21.60;51.40;;;;;;6248363;28;20100;-67
2022/05/19 16:11:33;;;;;;;5.80;2.60;;;21.60;51.40;;;;;;6231845;28;20050;-67
2022/05/19 16:14:35;;;;;;;4.85;2.20;;;21.60;51.40;;;;;;6219645;28;20185;-68
2022/05/19 16:17:37;;;;;;;4.55;1.83;;;21.60;51.40;;;;;;6241032;28;20569;-68
2022/05/19 16:20:38;;;;;;;4.70;1.90;;;21.60;51.40;;;;;;6249190;28;20083;-68
2022/05/19 16:23:39;;;;;;;3.40;1.67;;;21.60;51.50;;;;;;6251408;28;20026;-68
2022/05/19 16:26:39;;;;;;;4.38;1.90;;;21.50;51.30;;;;;;6241948;28;20037;-68
2022/05/19 16:29:41;;;;;;;3.85;1.88;;;21.50;51.30;;;;;;6220704;28;20026;-68
2022/05/19 16:32:43;;;;;;;3.97;2.10;;;21.60;51.40;;;;;;6217877;28;20114;-67
2022/05/19 16:35:44;;;;;;;3.35;2.00;;;21.50;51.30;;;;;;6217046;28;20014;-67